Terminal Aerodrome Forecast
Issued by NWS

Home | Current Version | Previous Version | Text Only | Print | Product List | Glossary On
Versions: 1 2 3 4 5 6 7 8 9 10 11 12 13 14 15
369
FTUS46 KPDT 101524 AAA
TAFPSC
TAF AMD
KPSC 101524Z 1015/1112 33005KT 6SM BR SCT009 BKN250
      TEMPO 1015/1017 1 1/2SM BR BKN009
     FM101900 VRB04KT P6SM BKN250
     FM102100 20008KT P6SM SCT150 BKN250
     FM110000 27003KT P6SM SCT100 BKN150
     FM110600 VRB03KT P6SM SCT050 OVC100=

USA.gov is the U.S. government's official web portal to all federal, state and local government web resources and services.